sensor_id;sensor_type;location;lat;lon;timestamp;P1;durP1;ratioP1;P2;durP2;ratioP2
10045;SDS011;5063;50.878;4.742;2024-02-04T00:00:30;11.10;;;6.70;;
10045;SDS011;5063;50.878;4.742;2024-02-04T00:02:55;12.83;;;6.33;;
10045;SDS011;5063;50.878;4.742;2024-02-04T00:05:21;8.10;;;6.20;;
10045;SDS011;5063;50.878;4.742;2024-02-04T00:07:47;9.70;;;6.17;;
10045;SDS011;5063;50.878;4.742;2024-02-04T00:10:13;11.07;;;5.63;;
10045;SDS011;5063;50.878;4.742;2024-02-04T00:12:40;9.33;;;5.83;;
10045;SDS011;5063;50.878;4.742;2024-02-04T00:15:06;9.40;;;5.87;;
10045;SDS011;5063;50.878;4.742;2024-02-04T00:17:33;7.67;;;5.80;;
10045;SDS011;5063;50.878;4.742;2024-02-04T00:19:59;8.97;;;5.60;;
10045;SDS011;5063;50.878;4.742;2024-02-04T00:22:27;11.30;;;5.90;;
10045;SDS011;5063;50.878;4.742;2024-02-04T00:24:53;10.97;;;6.10;;
10045;SDS011;5063;50.878;4.742;2024-02-04T00:27:19;8.37;;;5.57;;
10045;SDS011;5063;50.878;4.742;2024-02-04T00:29:45;7.23;;;5.43;;
10045;SDS011;5063;50.878;4.742;2024-02-04T00:32:10;8.97;;;5.83;;
10045;SDS011;5063;50.878;4.742;2024-02-04T00:34:36;7.80;;;5.13;;
10045;SDS011;5063;50.878;4.742;2024-02-04T00:37:02;9.90;;;5.27;;
10045;SDS011;5063;50.878;4.742;2024-02-04T00:39:28;10.27;;;5.20;;
10045;SDS011;5063;50.878;4.742;2024-02-04T00:41:53;7.50;;;5.60;;
10045;SDS011;5063;50.878;4.742;2024-02-04T00:44:19;6.97;;;4.47;;
10045;SDS011;5063;50.878;4.742;2024-02-04T00:46:45;6.77;;;5.37;;
10045;SDS011;5063;50.878;4.742;2024-02-04T00:49:10;5.07;;;4.40;;
10045;SDS011;5063;50.878;4.742;2024-02-04T00:51:36;6.77;;;4.57;;
10045;SDS011;5063;50.878;4.742;2024-02-04T00:54:02;6.97;;;4.57;;
10045;SDS011;5063;50.878;4.742;2024-02-04T00:56:28;6.23;;;4.47;;
10045;SDS011;5063;50.878;4.742;2024-02-04T00:58:53;6.10;;;3.90;;
10045;SDS011;5063;50.878;4.742;2024-02-04T01:01:19;4.87;;;4.00;;
10045;SDS011;5063;50.878;4.742;2024-02-04T01:03:45;4.07;;;3.77;;
10045;SDS011;5063;50.878;4.742;2024-02-04T01:06:11;4.83;;;4.17;;
10045;SDS011;5063;50.878;4.742;2024-02-04T01:08:36;5.43;;;3.67;;
10045;SDS011;5063;50.878;4.742;2024-02-04T01:11:03;5.57;;;4.20;;
10045;SDS011;5063;50.878;4.742;2024-02-04T01:13:30;5.87;;;4.57;;
10045;SDS011;5063;50.878;4.742;2024-02-04T01:15:56;4.93;;;3.40;;
10045;SDS011;5063;50.878;4.742;2024-02-04T01:18:22;6.80;;;4.03;;
10045;SDS011;5063;50.878;4.742;2024-02-04T01:20:47;5.03;;;3.63;;
10045;SDS011;5063;50.878;4.742;2024-02-04T01:23:14;4.77;;;4.17;;
10045;SDS011;5063;50.878;4.742;2024-02-04T01:25:42;6.77;;;4.00;;
10045;SDS011;5063;50.878;4.742;2024-02-04T01:28:08;5.23;;;3.73;;
10045;SDS011;5063;50.878;4.742;2024-02-04T01:30:34;5.07;;;3.70;;
10045;SDS011;5063;50.878;4.742;2024-02-04T01:33:00;4.23;;;3.83;;
10045;SDS011;5063;50.878;4.742;2024-02-04T01:35:26;5.17;;;4.20;;
10045;SDS011;5063;50.878;4.742;2024-02-04T01:37:51;4.57;;;4.10;;
10045;SDS011;5063;50.878;4.742;2024-02-04T01:40:17;4.43;;;4.03;;
10045;SDS011;5063;50.878;4.742;2024-02-04T01:42:43;4.43;;;3.70;;
10045;SDS011;5063;50.878;4.742;2024-02-04T01:45:09;4.87;;;4.23;;
10045;SDS011;5063;50.878;4.742;2024-02-04T01:47:34;6.10;;;3.70;;
10045;SDS011;5063;50.878;4.742;2024-02-04T01:50:00;4.33;;;3.93;;
10045;SDS011;5063;50.878;4.742;2024-02-04T01:52:27;5.23;;;3.97;;
10045;SDS011;5063;50.878;4.742;2024-02-04T01:54:54;4.27;;;3.77;;
10045;SDS011;5063;50.878;4.742;2024-02-04T01:57:20;5.33;;;3.70;;
10045;SDS011;5063;50.878;4.742;2024-02-04T01:59:47;6.90;;;3.67;;
10045;SDS011;5063;50.878;4.742;2024-02-04T02:02:16;4.97;;;3.40;;
10045;SDS011;5063;50.878;4.742;2024-02-04T02:04:43;5.27;;;3.90;;
10045;SDS011;5063;50.878;4.742;2024-02-04T02:07:09;4.60;;;3.63;;
10045;SDS011;5063;50.878;4.742;2024-02-04T02:09:35;5.77;;;3.60;;
10045;SDS011;5063;50.878;4.742;2024-02-04T02:14:33;6.13;;;4.20;;
10045;SDS011;5063;50.878;4.742;2024-02-04T02:22:24;5.67;;;3.90;;
10045;SDS011;5063;50.878;4.742;2024-02-04T02:25:01;5.20;;;4.70;;
10045;SDS011;5063;50.878;4.742;2024-02-04T02:27:30;6.07;;;4.07;;
10045;SDS011;5063;50.878;4.742;2024-02-04T02:29:55;5.17;;;4.13;;
10045;SDS011;5063;50.878;4.742;2024-02-04T02:32:21;4.60;;;3.80;;
10045;SDS011;5063;50.878;4.742;2024-02-04T02:34:48;5.87;;;4.50;;
10045;SDS011;5063;50.878;4.742;2024-02-04T02:39:42;5.00;;;4.33;;
10045;SDS011;5063;50.878;4.742;2024-02-04T02:42:13;6.00;;;4.70;;
10045;SDS011;5063;50.878;4.742;2024-02-04T02:44:41;9.70;;;4.30;;
10045;SDS011;5063;50.878;4.742;2024-02-04T02:47:10;5.53;;;4.00;;
10045;SDS011;5063;50.878;4.742;2024-02-04T02:49:36;8.73;;;4.70;;
10045;SDS011;5063;50.878;4.742;2024-02-04T02:52:03;5.70;;;4.90;;
10045;SDS011;5063;50.878;4.742;2024-02-04T02:54:29;8.83;;;4.17;;
10045;SDS011;5063;50.878;4.742;2024-02-04T02:56:55;8.10;;;5.00;;
10045;SDS011;5063;50.878;4.742;2024-02-04T02:59:20;6.30;;;4.57;;
10045;SDS011;5063;50.878;4.742;2024-02-04T03:01:46;7.73;;;4.67;;
10045;SDS011;5063;50.878;4.742;2024-02-04T03:04:12;5.57;;;4.83;;
10045;SDS011;5063;50.878;4.742;2024-02-04T03:06:37;9.20;;;5.10;;
10045;SDS011;5063;50.878;4.742;2024-02-04T03:09:03;9.13;;;5.77;;
10045;SDS011;5063;50.878;4.742;2024-02-04T03:11:29;7.90;;;5.60;;
10045;SDS011;5063;50.878;4.742;2024-02-04T03:13:54;10.20;;;6.07;;
10045;SDS011;5063;50.878;4.742;2024-02-04T03:16:20;8.27;;;6.53;;
10045;SDS011;5063;50.878;4.742;2024-02-04T03:18:46;8.10;;;5.83;;
10045;SDS011;5063;50.878;4.742;2024-02-04T03:21:15;8.43;;;6.07;;
10045;SDS011;5063;50.878;4.742;2024-02-04T03:23:41;9.07;;;6.33;;
10045;SDS011;5063;50.878;4.742;2024-02-04T03:26:08;8.60;;;6.17;;
10045;SDS011;5063;50.878;4.742;2024-02-04T03:28:41;10.37;;;6.57;;
10045;SDS011;5063;50.878;4.742;2024-02-04T03:31:06;11.77;;;7.17;;
10045;SDS011;5063;50.878;4.742;2024-02-04T03:33:32;11.20;;;7.60;;
10045;SDS011;5063;50.878;4.742;2024-02-04T03:35:58;15.63;;;7.97;;
10045;SDS011;5063;50.878;4.742;2024-02-04T03:38:24;11.30;;;7.70;;
10045;SDS011;5063;50.878;4.742;2024-02-04T03:40:49;11.70;;;7.77;;
10045;SDS011;5063;50.878;4.742;2024-02-04T03:43:15;11.60;;;7.30;;
10045;SDS011;5063;50.878;4.742;2024-02-04T03:45:41;13.80;;;7.90;;
10045;SDS011;5063;50.878;4.742;2024-02-04T03:48:06;10.27;;;7.30;;
10045;SDS011;5063;50.878;4.742;2024-02-04T03:50:32;10.27;;;7.50;;
10045;SDS011;5063;50.878;4.742;2024-02-04T03:52:58;12.70;;;8.57;;
10045;SDS011;5063;50.878;4.742;2024-02-04T03:55:24;14.53;;;8.50;;
10045;SDS011;5063;50.878;4.742;2024-02-04T03:57:51;13.57;;;7.30;;
10045;SDS011;5063;50.878;4.742;2024-02-04T04:00:17;13.03;;;6.90;;
10045;SDS011;5063;50.878;4.742;2024-02-04T04:02:42;15.53;;;7.20;;
10045;SDS011;5063;50.878;4.742;2024-02-04T04:05:11;10.63;;;6.40;;
10045;SDS011;5063;50.878;4.742;2024-02-04T04:07:40;9.33;;;6.33;;
10045;SDS011;5063;50.878;4.742;2024-02-04T04:10:06;12.07;;;6.53;;
10045;SDS011;5063;50.878;4.742;2024-02-04T04:12:32;9.93;;;6.50;;
10045;SDS011;5063;50.878;4.742;2024-02-04T04:14:58;11.87;;;6.33;;
10045;SDS011;5063;50.878;4.742;2024-02-04T04:17:23;9.63;;;6.47;;
10045;SDS011;5063;50.878;4.742;2024-02-04T04:19:49;9.30;;;6.77;;
10045;SDS011;5063;50.878;4.742;2024-02-04T04:22:15;8.43;;;5.33;;
10045;SDS011;5063;50.878;4.742;2024-02-04T04:24:40;13.67;;;6.37;;
10045;SDS011;5063;50.878;4.742;2024-02-04T04:27:06;8.23;;;5.77;;
10045;SDS011;5063;50.878;4.742;2024-02-04T04:29:32;7.83;;;5.90;;
10045;SDS011;5063;50.878;4.742;2024-02-04T04:31:57;10.43;;;6.23;;
10045;SDS011;5063;50.878;4.742;2024-02-04T04:34:23;10.50;;;5.97;;
10045;SDS011;5063;50.878;4.742;2024-02-04T04:36:49;12.03;;;7.03;;
10045;SDS011;5063;50.878;4.742;2024-02-04T04:39:14;10.57;;;5.80;;
10045;SDS011;5063;50.878;4.742;2024-02-04T04:41:41;11.10;;;6.97;;
10045;SDS011;5063;50.878;4.742;2024-02-04T04:44:09;9.07;;;5.47;;
10045;SDS011;5063;50.878;4.742;2024-02-04T04:46:37;10.20;;;5.73;;
10045;SDS011;5063;50.878;4.742;2024-02-04T04:49:04;8.47;;;5.60;;
10045;SDS011;5063;50.878;4.742;2024-02-04T04:51:30;9.57;;;6.00;;
10045;SDS011;5063;50.878;4.742;2024-02-04T04:53:56;9.50;;;5.27;;
10045;SDS011;5063;50.878;4.742;2024-02-04T04:56:22;10.90;;;6.20;;
10045;SDS011;5063;50.878;4.742;2024-02-04T04:58:47;10.50;;;6.07;;
10045;SDS011;5063;50.878;4.742;2024-02-04T05:01:15;8.03;;;5.07;;
10045;SDS011;5063;50.878;4.742;2024-02-04T05:03:40;7.50;;;5.27;;
10045;SDS011;5063;50.878;4.742;2024-02-04T05:06:06;7.67;;;5.53;;
10045;SDS011;5063;50.878;4.742;2024-02-04T05:08:32;7.77;;;5.63;;
10045;SDS011;5063;50.878;4.742;2024-02-04T05:10:57;14.47;;;6.57;;
10045;SDS011;5063;50.878;4.742;2024-02-04T05:13:23;7.13;;;5.10;;
10045;SDS011;5063;50.878;4.742;2024-02-04T05:15:49;6.47;;;4.90;;
10045;SDS011;5063;50.878;4.742;2024-02-04T05:18:14;9.63;;;5.03;;
10045;SDS011;5063;50.878;4.742;2024-02-04T05:20:40;8.07;;;4.70;;
10045;SDS011;5063;50.878;4.742;2024-02-04T05:23:08;6.33;;;4.60;;
10045;SDS011;5063;50.878;4.742;2024-02-04T05:25:34;7.83;;;4.57;;
10045;SDS011;5063;50.878;4.742;2024-02-04T05:28:00;5.53;;;4.00;;
10045;SDS011;5063;50.878;4.742;2024-02-04T05:30:25;5.27;;;3.90;;
10045;SDS011;5063;50.878;4.742;2024-02-04T05:32:51;5.37;;;4.40;;
10045;SDS011;5063;50.878;4.742;2024-02-04T05:35:17;6.27;;;4.20;;
10045;SDS011;5063;50.878;4.742;2024-02-04T05:37:43;8.23;;;4.13;;
10045;SDS011;5063;50.878;4.742;2024-02-04T05:40:08;5.50;;;4.40;;
10045;SDS011;5063;50.878;4.742;2024-02-04T05:42:34;7.00;;;3.80;;
10045;SDS011;5063;50.878;4.742;2024-02-04T05:45:02;7.03;;;3.70;;
10045;SDS011;5063;50.878;4.742;2024-02-04T05:47:28;6.90;;;3.67;;
10045;SDS011;5063;50.878;4.742;2024-02-04T05:49:54;6.70;;;3.60;;
10045;SDS011;5063;50.878;4.742;2024-02-04T05:52:20;5.23;;;3.57;;
10045;SDS011;5063;50.878;4.742;2024-02-04T05:54:45;9.53;;;3.70;;
10045;SDS011;5063;50.878;4.742;2024-02-04T05:57:11;4.23;;;3.63;;
10045;SDS011;5063;50.878;4.742;2024-02-04T05:59:37;7.00;;;3.97;;
10045;SDS011;5063;50.878;4.742;2024-02-04T06:02:04;7.43;;;3.70;;
10045;SDS011;5063;50.878;4.742;2024-02-04T06:04:30;5.47;;;3.83;;
10045;SDS011;5063;50.878;4.742;2024-02-04T06:06:55;6.23;;;3.60;;
10045;SDS011;5063;50.878;4.742;2024-02-04T06:09:21;5.77;;;4.10;;
10045;SDS011;5063;50.878;4.742;2024-02-04T06:11:47;8.40;;;5.00;;
10045;SDS011;5063;50.878;4.742;2024-02-04T06:14:13;10.17;;;5.00;;
10045;SDS011;5063;50.878;4.742;2024-02-04T06:16:38;9.03;;;4.60;;
10045;SDS011;5063;50.878;4.742;2024-02-04T06:19:04;14.93;;;6.07;;
10045;SDS011;5063;50.878;4.742;2024-02-04T06:21:30;8.07;;;5.60;;
10045;SDS011;5063;50.878;4.742;2024-02-04T06:23:56;9.73;;;6.07;;
10045;SDS011;5063;50.878;4.742;2024-02-04T06:26:22;9.90;;;5.47;;
10045;SDS011;5063;50.878;4.742;2024-02-04T06:28:49;15.60;;;6.00;;
10045;SDS011;5063;50.878;4.742;2024-02-04T06:31:16;13.00;;;5.57;;
10045;SDS011;5063;50.878;4.742;2024-02-04T06:33:41;10.13;;;7.10;;
10045;SDS011;5063;50.878;4.742;2024-02-04T06:36:10;11.93;;;6.50;;
10045;SDS011;5063;50.878;4.742;2024-02-04T06:38:36;16.07;;;6.43;;
10045;SDS011;5063;50.878;4.742;2024-02-04T06:41:02;14.43;;;7.20;;
10045;SDS011;5063;50.878;4.742;2024-02-04T06:43:28;12.37;;;6.73;;
10045;SDS011;5063;50.878;4.742;2024-02-04T06:45:53;11.67;;;6.60;;
10045;SDS011;5063;50.878;4.742;2024-02-04T06:48:19;9.60;;;6.80;;
10045;SDS011;5063;50.878;4.742;2024-02-04T06:50:45;9.37;;;6.10;;
10045;SDS011;5063;50.878;4.742;2024-02-04T06:53:13;8.53;;;6.40;;
10045;SDS011;5063;50.878;4.742;2024-02-04T06:55:39;12.23;;;6.70;;
10045;SDS011;5063;50.878;4.742;2024-02-04T06:58:05;11.83;;;5.73;;
10045;SDS011;5063;50.878;4.742;2024-02-04T07:00:30;10.57;;;6.47;;
10045;SDS011;5063;50.878;4.742;2024-02-04T07:02:56;10.27;;;5.47;;
10045;SDS011;5063;50.878;4.742;2024-02-04T07:05:22;10.47;;;6.10;;
10045;SDS011;5063;50.878;4.742;2024-02-04T07:07:48;8.43;;;6.10;;
10045;SDS011;5063;50.878;4.742;2024-02-04T07:10:15;11.67;;;5.70;;
10045;SDS011;5063;50.878;4.742;2024-02-04T07:12:41;8.67;;;5.80;;
10045;SDS011;5063;50.878;4.742;2024-02-04T07:15:07;13.03;;;6.67;;
10045;SDS011;5063;50.878;4.742;2024-02-04T07:17:33;10.73;;;5.70;;
10045;SDS011;5063;50.878;4.742;2024-02-04T07:20:00;15.57;;;6.47;;
10045;SDS011;5063;50.878;4.742;2024-02-04T07:22:26;8.27;;;5.50;;
10045;SDS011;5063;50.878;4.742;2024-02-04T07:24:52;9.67;;;5.47;;
10045;SDS011;5063;50.878;4.742;2024-02-04T07:27:18;7.70;;;5.47;;
10045;SDS011;5063;50.878;4.742;2024-02-04T07:29:43;7.60;;;5.57;;
10045;SDS011;5063;50.878;4.742;2024-02-04T07:32:09;10.73;;;6.13;;
10045;SDS011;5063;50.878;4.742;2024-02-04T07:34:35;10.93;;;5.97;;
10045;SDS011;5063;50.878;4.742;2024-02-04T07:37:01;8.10;;;5.93;;
10045;SDS011;5063;50.878;4.742;2024-02-04T07:39:27;9.67;;;6.90;;
10045;SDS011;5063;50.878;4.742;2024-02-04T07:41:55;11.17;;;6.47;;
10045;SDS011;5063;50.878;4.742;2024-02-04T07:44:25;11.30;;;6.60;;
10045;SDS011;5063;50.878;4.742;2024-02-04T07:46:54;11.37;;;7.50;;
10045;SDS011;5063;50.878;4.742;2024-02-04T07:49:19;11.67;;;7.17;;
10045;SDS011;5063;50.878;4.742;2024-02-04T07:51:45;11.87;;;7.63;;
10045;SDS011;5063;50.878;4.742;2024-02-04T07:54:11;13.73;;;7.43;;
10045;SDS011;5063;50.878;4.742;2024-02-04T07:56:37;10.67;;;7.63;;
10045;SDS011;5063;50.878;4.742;2024-02-04T07:59:02;14.17;;;8.10;;
10045;SDS011;5063;50.878;4.742;2024-02-04T08:01:29;10.57;;;7.43;;
10045;SDS011;5063;50.878;4.742;2024-02-04T08:03:55;13.37;;;7.50;;
10045;SDS011;5063;50.878;4.742;2024-02-04T08:06:21;12.93;;;7.83;;
10045;SDS011;5063;50.878;4.742;2024-02-04T08:08:47;14.17;;;7.47;;
10045;SDS011;5063;50.878;4.742;2024-02-04T08:11:20;11.53;;;7.73;;
10045;SDS011;5063;50.878;4.742;2024-02-04T08:13:46;11.37;;;8.00;;
10045;SDS011;5063;50.878;4.742;2024-02-04T08:16:12;14.53;;;7.60;;
10045;SDS011;5063;50.878;4.742;2024-02-04T08:18:38;12.83;;;7.00;;
10045;SDS011;5063;50.878;4.742;2024-02-04T08:21:03;15.33;;;7.10;;
10045;SDS011;5063;50.878;4.742;2024-02-04T08:23:29;10.27;;;6.83;;
10045;SDS011;5063;50.878;4.742;2024-02-04T08:25:55;11.33;;;6.90;;
10045;SDS011;5063;50.878;4.742;2024-02-04T08:28:22;11.53;;;6.30;;
10045;SDS011;5063;50.878;4.742;2024-02-04T08:30:48;10.43;;;7.23;;
10045;SDS011;5063;50.878;4.742;2024-02-04T08:33:14;10.30;;;6.20;;
10045;SDS011;5063;50.878;4.742;2024-02-04T08:35:40;9.87;;;5.77;;
10045;SDS011;5063;50.878;4.742;2024-02-04T08:38:06;7.67;;;6.00;;
10045;SDS011;5063;50.878;4.742;2024-02-04T08:40:32;7.83;;;5.43;;
10045;SDS011;5063;50.878;4.742;2024-02-04T08:42:58;11.37;;;5.47;;
10045;SDS011;5063;50.878;4.742;2024-02-04T08:45:23;8.73;;;5.57;;
10045;SDS011;5063;50.878;4.742;2024-02-04T08:47:49;9.67;;;5.13;;
10045;SDS011;5063;50.878;4.742;2024-02-04T08:50:15;5.60;;;4.13;;
10045;SDS011;5063;50.878;4.742;2024-02-04T08:52:40;5.73;;;4.10;;
10045;SDS011;5063;50.878;4.742;2024-02-04T08:55:06;6.47;;;3.87;;
10045;SDS011;5063;50.878;4.742;2024-02-04T08:57:32;8.40;;;4.63;;
10045;SDS011;5063;50.878;4.742;2024-02-04T08:59:58;8.17;;;4.90;;
10045;SDS011;5063;50.878;4.742;2024-02-04T09:02:24;7.60;;;4.30;;
10045;SDS011;5063;50.878;4.742;2024-02-04T09:04:49;5.87;;;4.17;;
10045;SDS011;5063;50.878;4.742;2024-02-04T09:07:15;5.43;;;3.70;;
10045;SDS011;5063;50.878;4.742;2024-02-04T09:09:41;9.23;;;4.40;;
10045;SDS011;5063;50.878;4.742;2024-02-04T09:12:08;5.63;;;4.30;;
10045;SDS011;5063;50.878;4.742;2024-02-04T09:14:35;6.07;;;4.13;;
10045;SDS011;5063;50.878;4.742;2024-02-04T09:17:04;8.50;;;4.10;;
10045;SDS011;5063;50.878;4.742;2024-02-04T09:19:31;7.83;;;4.60;;
10045;SDS011;5063;50.878;4.742;2024-02-04T09:21:57;9.33;;;4.57;;
10045;SDS011;5063;50.878;4.742;2024-02-04T09:24:23;6.80;;;3.70;;
10045;SDS011;5063;50.878;4.742;2024-02-04T09:26:48;5.63;;;3.83;;
10045;SDS011;5063;50.878;4.742;2024-02-04T09:29:14;9.07;;;3.70;;
10045;SDS011;5063;50.878;4.742;2024-02-04T09:31:40;6.30;;;3.57;;
10045;SDS011;5063;50.878;4.742;2024-02-04T09:34:06;5.57;;;3.63;;
10045;SDS011;5063;50.878;4.742;2024-02-04T09:36:31;4.57;;;3.67;;
10045;SDS011;5063;50.878;4.742;2024-02-04T09:38:57;5.10;;;3.03;;
10045;SDS011;5063;50.878;4.742;2024-02-04T09:41:23;5.90;;;2.83;;
10045;SDS011;5063;50.878;4.742;2024-02-04T09:43:50;5.40;;;3.23;;
10045;SDS011;5063;50.878;4.742;2024-02-04T09:46:17;6.57;;;3.10;;
10045;SDS011;5063;50.878;4.742;2024-02-04T09:48:43;6.80;;;2.53;;
10045;SDS011;5063;50.878;4.742;2024-02-04T09:51:10;4.83;;;2.67;;
10045;SDS011;5063;50.878;4.742;2024-02-04T09:53:36;4.33;;;2.47;;
10045;SDS011;5063;50.878;4.742;2024-02-04T09:56:09;5.97;;;2.57;;
10045;SDS011;5063;50.878;4.742;2024-02-04T09:58:36;4.23;;;2.87;;
10045;SDS011;5063;50.878;4.742;2024-02-04T10:01:03;7.70;;;2.80;;
10045;SDS011;5063;50.878;4.742;2024-02-04T10:03:30;5.43;;;2.17;;
10045;SDS011;5063;50.878;4.742;2024-02-04T10:05:56;4.77;;;2.40;;
10045;SDS011;5063;50.878;4.742;2024-02-04T10:08:22;3.67;;;2.07;;
10045;SDS011;5063;50.878;4.742;2024-02-04T10:10:48;3.53;;;2.10;;
10045;SDS011;5063;50.878;4.742;2024-02-04T10:13:14;5.60;;;2.47;;
10045;SDS011;5063;50.878;4.742;2024-02-04T10:15:39;4.57;;;2.20;;
10045;SDS011;5063;50.878;4.742;2024-02-04T10:18:06;6.30;;;2.77;;
10045;SDS011;5063;50.878;4.742;2024-02-04T10:20:32;3.20;;;2.10;;
10045;SDS011;5063;50.878;4.742;2024-02-04T10:22:58;4.50;;;2.43;;
10045;SDS011;5063;50.878;4.742;2024-02-04T10:25:24;6.53;;;2.93;;
10045;SDS011;5063;50.878;4.742;2024-02-04T10:27:50;5.60;;;2.57;;
10045;SDS011;5063;50.878;4.742;2024-02-04T10:30:20;5.00;;;2.83;;
10045;SDS011;5063;50.878;4.742;2024-02-04T10:32:50;6.77;;;3.00;;
10045;SDS011;5063;50.878;4.742;2024-02-04T10:35:16;3.93;;;2.60;;
10045;SDS011;5063;50.878;4.742;2024-02-04T10:37:45;5.23;;;2.40;;
10045;SDS011;5063;50.878;4.742;2024-02-04T10:40:11;5.43;;;2.87;;
10045;SDS011;5063;50.878;4.742;2024-02-04T10:42:37;6.27;;;2.67;;
10045;SDS011;5063;50.878;4.742;2024-02-04T10:45:07;3.47;;;2.70;;
10045;SDS011;5063;50.878;4.742;2024-02-04T10:47:37;6.33;;;2.83;;
10045;SDS011;5063;50.878;4.742;2024-02-04T10:50:04;5.17;;;2.63;;
10045;SDS011;5063;50.878;4.742;2024-02-04T10:52:37;3.03;;;2.60;;
10045;SDS011;5063;50.878;4.742;2024-02-04T10:55:08;5.53;;;2.80;;
10045;SDS011;5063;50.878;4.742;2024-02-04T10:57:35;4.03;;;2.83;;
10045;SDS011;5063;50.878;4.742;2024-02-04T11:00:02;4.37;;;2.73;;
10045;SDS011;5063;50.878;4.742;2024-02-04T11:02:37;6.87;;;2.37;;
10045;SDS011;5063;50.878;4.742;2024-02-04T11:05:04;4.33;;;2.40;;
10045;SDS011;5063;50.878;4.742;2024-02-04T11:07:34;5.20;;;2.83;;
10045;SDS011;5063;50.878;4.742;2024-02-04T11:10:00;4.03;;;2.77;;
10045;SDS011;5063;50.878;4.742;2024-02-04T11:12:27;5.60;;;2.30;;
10045;SDS011;5063;50.878;4.742;2024-02-04T11:14:56;2.83;;;2.10;;
10045;SDS011;5063;50.878;4.742;2024-02-04T11:25:52;4.03;;;1.80;;
10045;SDS011;5063;50.878;4.742;2024-02-04T11:28:20;3.07;;;2.10;;
10045;SDS011;5063;50.878;4.742;2024-02-04T11:30:47;5.07;;;2.17;;
10045;SDS011;5063;50.878;4.742;2024-02-04T11:33:17;3.63;;;1.90;;
10045;SDS011;5063;50.878;4.742;2024-02-04T11:35:44;4.63;;;1.90;;
10045;SDS011;5063;50.878;4.742;2024-02-04T11:38:10;2.87;;;1.90;;
10045;SDS011;5063;50.878;4.742;2024-02-04T11:40:39;3.10;;;1.80;;
10045;SDS011;5063;50.878;4.742;2024-02-04T11:43:12;7.10;;;1.90;;
10045;SDS011;5063;50.878;4.742;2024-02-04T11:45:40;4.83;;;2.00;;
10045;SDS011;5063;50.878;4.742;2024-02-04T11:48:07;4.00;;;1.70;;
10045;SDS011;5063;50.878;4.742;2024-02-04T11:50:33;2.30;;;1.57;;
10045;SDS011;5063;50.878;4.742;2024-02-04T11:55:32;2.83;;;1.87;;
10045;SDS011;5063;50.878;4.742;2024-02-04T11:57:59;1.67;;;1.47;;
10045;SDS011;5063;50.878;4.742;2024-02-04T12:00:25;2.33;;;1.27;;
10045;SDS011;5063;50.878;4.742;2024-02-04T12:03:03;2.53;;;1.70;;
10045;SDS011;5063;50.878;4.742;2024-02-04T12:05:31;2.10;;;1.60;;
10045;SDS011;5063;50.878;4.742;2024-02-04T12:08:04;3.47;;;1.57;;
10045;SDS011;5063;50.878;4.742;2024-02-04T12:10:32;3.30;;;1.90;;
10045;SDS011;5063;50.878;4.742;2024-02-04T12:12:59;1.83;;;1.50;;
10045;SDS011;5063;50.878;4.742;2024-02-04T12:15:28;4.87;;;1.80;;
10045;SDS011;5063;50.878;4.742;2024-02-04T12:17:55;4.60;;;1.67;;
10045;SDS011;5063;50.878;4.742;2024-02-04T12:20:30;3.47;;;1.67;;
10045;SDS011;5063;50.878;4.742;2024-02-04T12:22:55;2.57;;;1.50;;
10045;SDS011;5063;50.878;4.742;2024-02-04T12:25:21;2.97;;;1.63;;
10045;SDS011;5063;50.878;4.742;2024-02-04T12:27:50;1.93;;;1.50;;
10045;SDS011;5063;50.878;4.742;2024-02-04T12:30:16;2.47;;;1.30;;
10045;SDS011;5063;50.878;4.742;2024-02-04T12:32:43;2.17;;;1.90;;
10045;SDS011;5063;50.878;4.742;2024-02-04T12:35:13;4.63;;;1.80;;
10045;SDS011;5063;50.878;4.742;2024-02-04T12:37:49;2.90;;;1.87;;
10045;SDS011;5063;50.878;4.742;2024-02-04T12:40:24;4.90;;;1.73;;
10045;SDS011;5063;50.878;4.742;2024-02-04T12:45:21;1.97;;;1.63;;
10045;SDS011;5063;50.878;4.742;2024-02-04T12:47:51;1.60;;;1.50;;
10045;SDS011;5063;50.878;4.742;2024-02-04T12:50:18;4.40;;;1.40;;
10045;SDS011;5063;50.878;4.742;2024-02-04T12:52:45;3.23;;;1.57;;
10045;SDS011;5063;50.878;4.742;2024-02-04T12:55:22;4.77;;;1.60;;
10045;SDS011;5063;50.878;4.742;2024-02-04T12:57:49;3.27;;;1.50;;
10045;SDS011;5063;50.878;4.742;2024-02-04T13:00:18;1.73;;;1.63;;
10045;SDS011;5063;50.878;4.742;2024-02-04T13:02:44;2.00;;;1.30;;
10045;SDS011;5063;50.878;4.742;2024-02-04T13:05:10;1.53;;;1.30;;
10045;SDS011;5063;50.878;4.742;2024-02-04T13:07:46;2.30;;;1.43;;
10045;SDS011;5063;50.878;4.742;2024-02-04T13:10:15;1.20;;;1.10;;
10045;SDS011;5063;50.878;4.742;2024-02-04T13:12:42;3.57;;;1.63;;
10045;SDS011;5063;50.878;4.742;2024-02-04T13:15:08;1.17;;;1.10;;
10045;SDS011;5063;50.878;4.742;2024-02-04T13:17:34;2.00;;;1.43;;
10045;SDS011;5063;50.878;4.742;2024-02-04T13:20:00;1.40;;;1.30;;
10045;SDS011;5063;50.878;4.742;2024-02-04T13:22:25;1.77;;;1.00;;
10045;SDS011;5063;50.878;4.742;2024-02-04T13:24:51;1.77;;;1.00;;
10045;SDS011;5063;50.878;4.742;2024-02-04T13:27:17;1.10;;;1.00;;
10045;SDS011;5063;50.878;4.742;2024-02-04T13:29:42;2.80;;;1.10;;
10045;SDS011;5063;50.878;4.742;2024-02-04T13:32:08;2.30;;;1.00;;
10045;SDS011;5063;50.878;4.742;2024-02-04T13:34:34;1.10;;;1.00;;
10045;SDS011;5063;50.878;4.742;2024-02-04T13:36:59;2.47;;;1.03;;
10045;SDS011;5063;50.878;4.742;2024-02-04T13:39:25;2.67;;;1.20;;
10045;SDS011;5063;50.878;4.742;2024-02-04T13:41:51;4.53;;;2.03;;
10045;SDS011;5063;50.878;4.742;2024-02-04T13:44:17;1.90;;;1.30;;
10045;SDS011;5063;50.878;4.742;2024-02-04T13:46:42;1.83;;;1.73;;
10045;SDS011;5063;50.878;4.742;2024-02-04T13:49:08;1.67;;;1.57;;
10045;SDS011;5063;50.878;4.742;2024-02-04T13:51:35;1.90;;;1.27;;
10045;SDS011;5063;50.878;4.742;2024-02-04T13:54:01;1.20;;;0.80;;
10045;SDS011;5063;50.878;4.742;2024-02-04T13:56:27;2.63;;;1.00;;
10045;SDS011;5063;50.878;4.742;2024-02-04T13:58:54;1.93;;;1.07;;
10045;SDS011;5063;50.878;4.742;2024-02-04T14:01:20;1.20;;;1.00;;
10045;SDS011;5063;50.878;4.742;2024-02-04T14:03:48;2.73;;;1.17;;
10045;SDS011;5063;50.878;4.742;2024-02-04T14:06:14;2.10;;;1.03;;
10045;SDS011;5063;50.878;4.742;2024-02-04T14:08:40;2.77;;;1.17;;
10045;SDS011;5063;50.878;4.742;2024-02-04T14:11:06;2.50;;;1.30;;
10045;SDS011;5063;50.878;4.742;2024-02-04T14:13:32;1.83;;;0.90;;
10045;SDS011;5063;50.878;4.742;2024-02-04T14:15:58;1.57;;;0.90;;
10045;SDS011;5063;50.878;4.742;2024-02-04T14:18:23;1.20;;;1.07;;
10045;SDS011;5063;50.878;4.742;2024-02-04T14:20:50;1.97;;;1.10;;
10045;SDS011;5063;50.878;4.742;2024-02-04T14:23:15;1.67;;;1.17;;
10045;SDS011;5063;50.878;4.742;2024-02-04T14:25:41;1.50;;;1.17;;
10045;SDS011;5063;50.878;4.742;2024-02-04T14:28:07;1.57;;;1.20;;
10045;SDS011;5063;50.878;4.742;2024-02-04T14:30:32;1.70;;;1.20;;
10045;SDS011;5063;50.878;4.742;2024-02-04T14:32:58;1.30;;;1.20;;
10045;SDS011;5063;50.878;4.742;2024-02-04T14:35:24;2.60;;;1.40;;
10045;SDS011;5063;50.878;4.742;2024-02-04T14:37:49;3.80;;;1.63;;
10045;SDS011;5063;50.878;4.742;2024-02-04T14:40:15;4.20;;;1.90;;
10045;SDS011;5063;50.878;4.742;2024-02-04T14:42:41;2.70;;;1.70;;
10045;SDS011;5063;50.878;4.742;2024-02-04T14:45:07;1.90;;;1.47;;
10045;SDS011;5063;50.878;4.742;2024-02-04T14:47:33;3.37;;;1.87;;
10045;SDS011;5063;50.878;4.742;2024-02-04T14:49:59;3.10;;;1.57;;
10045;SDS011;5063;50.878;4.742;2024-02-04T14:52:24;2.33;;;1.77;;
10045;SDS011;5063;50.878;4.742;2024-02-04T14:54:50;1.93;;;1.67;;
10045;SDS011;5063;50.878;4.742;2024-02-04T14:57:16;1.87;;;1.67;;
10045;SDS011;5063;50.878;4.742;2024-02-04T14:59:41;2.50;;;1.77;;
10045;SDS011;5063;50.878;4.742;2024-02-04T15:02:08;7.10;;;2.37;;
10045;SDS011;5063;50.878;4.742;2024-02-04T15:04:34;4.40;;;2.23;;
10045;SDS011;5063;50.878;4.742;2024-02-04T15:07:00;3.37;;;1.60;;
10045;SDS011;5063;50.878;4.742;2024-02-04T15:09:33;3.03;;;1.93;;
10045;SDS011;5063;50.878;4.742;2024-02-04T15:11:59;3.93;;;2.23;;
10045;SDS011;5063;50.878;4.742;2024-02-04T15:14:25;3.53;;;1.80;;
10045;SDS011;5063;50.878;4.742;2024-02-04T15:16:52;5.23;;;2.37;;